Riggston, Illinois
Current Conditions -  °F | °C
As of 3:35 PM on Thursday 18 Dec 2014 (Local Time) from KIJX Reporting Station
Unknown Precip Unknown Precip  
Wind Chill: 31°   Ceiling: 1300
Heat Index: 31°   Visibility: 7mi
Dew Point: 27°   Wind: 0mph
Humidity: 83%   Direction: NA
Pressure: 30.25"   Gusts: NA
Location:  39.6195°N, 90.4337°W
Report Text: KIJX 182135Z AUTO 00000KT 7SM UP OVC013 00/M03 A3025 RMK AO2 T10051030
Loading
Personal Weather Stations






























Interactive Weather Map New forecast layout! Learn more

10-Day Weather Forecast

Advertisements
Track Severe Weather on mobile